Time;durP1;ratioP1;P1;durP2;ratioP2;P2;SDS_P1;SDS_P2;PMS_P1;PMS_P2;Temp;Humidity;BMP_temperature;BMP_pressure;BME280_temperature;BME280_humidity;BME280_pressure;Samples;Min_cycle;Max_cycle;Signal;HPM_P1;HPM_P2
2023/02/11 00:03:52;;;;;;;17.13;13.63;;;;;;;0.29;100.00;100001.16;15287622;19;20095;-78
2023/02/11 00:09:20;;;;;;;16.95;14.30;;;;;;;0.36;100.00;100009.75;15286819;19;20070;-79
2023/02/11 00:14:48;;;;;;;15.55;13.60;;;;;;;0.37;100.00;99991.09;15288568;19;20039;-78
2023/02/11 00:20:13;;;;;;;18.83;14.85;;;;;;;0.41;100.00;99981.28;15295024;19;20011;-80
2023/02/11 00:25:40;;;;;;;18.10;13.60;;;;;;;0.43;100.00;99975.00;15338282;19;20015;-78
2023/02/11 00:31:05;;;;;;;19.05;14.68;;;;;;;0.42;100.00;99961.75;15287037;19;20017;-79
2023/02/11 00:36:31;;;;;;;15.68;13.98;;;;;;;0.43;100.00;99936.97;15287382;19;20010;-78
2023/02/11 00:42:00;;;;;;;16.15;13.63;;;;;;;0.48;100.00;99920.88;15286772;19;20360;-79
2023/02/11 00:47:24;;;;;;;14.35;12.77;;;;;;;0.45;100.00;99919.22;15287557;19;20025;-78
2023/02/11 00:52:49;;;;;;;17.25;13.40;;;;;;;0.50;100.00;99922.56;15284845;19;20031;-78
2023/02/11 00:58:16;;;;;;;15.30;13.57;;;;;;;0.50;100.00;99913.75;15283645;19;20495;-79
2023/02/11 01:03:41;;;;;;;15.77;13.27;;;;;;;0.55;100.00;99911.78;15284519;19;20023;-80
2023/02/11 01:09:06;;;;;;;17.33;13.48;;;;;;;0.59;100.00;99916.91;15282668;19;20480;-79
2023/02/11 01:14:33;;;;;;;18.13;13.80;;;;;;;0.53;100.00;99942.81;15287518;19;20029;-78
2023/02/11 01:19:58;;;;;;;16.65;13.00;;;;;;;0.57;100.00;99945.28;15285960;19;20014;-79
2023/02/11 01:25:23;;;;;;;17.27;13.10;;;;;;;0.53;100.00;99930.38;15285690;19;20078;-79
2023/02/11 01:30:50;;;;;;;14.52;12.65;;;;;;;0.57;100.00;99913.44;15282165;19;20537;-78
2023/02/11 01:36:16;;;;;;;15.52;13.05;;;;;;;0.57;100.00;99917.91;15280100;19;20010;-78
2023/02/11 01:41:43;;;;;;;16.00;13.82;;;;;;;0.51;100.00;99876.56;15277255;19;20015;-79
2023/02/11 01:47:10;;;;;;;17.83;13.48;;;;;;;0.45;100.00;99874.16;15283275;19;20015;-79
2023/02/11 01:52:40;;;;;;;15.55;12.55;;;;;;;0.44;100.00;99860.03;15285179;19;20039;-79
2023/02/11 01:58:07;;;;;;;16.95;12.85;;;;;;;0.44;100.00;99872.41;15291190;19;20023;-79
2023/02/11 02:03:44;;;;;;;15.90;13.35;;;;;;;0.40;100.00;99852.28;15330360;19;20010;-79
2023/02/11 02:09:14;;;;;;;16.55;12.98;;;;;;;0.42;100.00;99843.31;15291293;19;20038;-77
2023/02/11 02:14:39;;;;;;;16.65;13.35;;;;;;;0.46;100.00;99830.81;15276285;19;20014;-79
2023/02/11 02:20:27;;;;;;;15.55;13.57;;;;;;;0.49;100.00;99820.06;15282180;19;20039;-79
2023/02/11 02:26:22;;;;;;;15.10;13.27;;;;;;;0.58;100.00;99840.91;15285067;19;20015;-78
2023/02/11 02:32:00;;;;;;;16.05;13.57;;;;;;;0.70;100.00;99854.59;15274710;19;20334;-78
2023/02/11 02:37:36;;;;;;;15.07;12.75;;;;;;;0.80;100.00;99855.94;15282983;19;20018;-79
2023/02/11 02:43:04;;;;;;;13.35;11.95;;;;;;;0.89;100.00;99850.25;15283750;19;20022;-79
2023/02/11 02:48:36;;;;;;;14.95;12.43;;;;;;;0.96;100.00;99823.47;15288180;19;20019;-79
2023/02/11 02:54:18;;;;;;;14.90;12.20;;;;;;;0.99;100.00;99829.50;15296463;19;20018;-79
2023/02/11 02:59:56;;;;;;;16.95;12.98;;;;;;;1.08;100.00;99830.91;15296274;19;20019;-79
2023/02/11 03:05:31;;;;;;;15.18;13.32;;;;;;;1.15;100.00;99813.75;15297456;19;20466;-79
2023/02/11 03:11:00;;;;;;;13.95;12.45;;;;;;;1.18;100.00;99802.13;15289597;19;20010;-80
2023/02/11 03:16:29;;;;;;;14.40;12.05;;;;;;;1.24;100.00;99770.03;15290458;19;20022;-79
2023/02/11 03:21:56;;;;;;;14.73;12.15;;;;;;;1.28;100.00;99760.13;15289111;19;20038;-79
2023/02/11 03:27:30;;;;;;;15.82;12.73;;;;;;;1.32;100.00;99745.78;15298512;19;20010;-79
2023/02/11 03:32:59;;;;;;;15.50;12.13;;;;;;;1.32;100.00;99756.41;15295117;19;20014;-79
2023/02/11 03:38:30;;;;;;;16.80;12.65;;;;;;;1.33;100.00;99772.25;15288162;19;20006;-78
2023/02/11 03:44:00;;;;;;;15.35;12.88;;;;;;;1.31;100.00;99768.81;15290456;19;20479;-79
2023/02/11 03:49:30;;;;;;;15.63;12.63;;;;;;;1.35;100.00;99751.81;15288421;19;20014;-79
2023/02/11 03:54:59;;;;;;;16.55;12.43;;;;;;;1.42;100.00;99764.78;15287143;19;20018;-78
2023/02/11 04:00:32;;;;;;;15.30;12.35;;;;;;;1.45;100.00;99767.31;15285381;19;20400;-78
2023/02/11 04:05:57;;;;;;;13.65;11.85;;;;;;;1.50;100.00;99752.91;15291356;19;20881;-80
2023/02/11 04:11:23;;;;;;;15.25;12.52;;;;;;;1.57;100.00;99757.94;15287296;19;20082;-78
2023/02/11 04:16:50;;;;;;;13.85;12.35;;;;;;;1.59;100.00;99753.44;15290295;19;20006;-79
2023/02/11 04:22:15;;;;;;;14.02;12.40;;;;;;;1.60;100.00;99760.44;15307816;19;20007;-80
2023/02/11 04:27:40;;;;;;;15.38;12.38;;;;;;;1.61;100.00;99784.28;15345415;19;20082;-80
2023/02/11 04:33:07;;;;;;;14.75;12.25;;;;;;;1.61;100.00;99783.41;15309189;19;20035;-79
2023/02/11 04:38:32;;;;;;;15.52;12.65;;;;;;;1.61;100.00;99781.63;15305408;19;20494;-80
2023/02/11 04:43:57;;;;;;;14.88;12.65;;;;;;;1.62;100.00;99779.81;15304150;19;20014;-79
2023/02/11 04:49:25;;;;;;;16.05;12.80;;;;;;;1.63;100.00;99782.44;15304497;19;20036;-80
2023/02/11 04:54:55;;;;;;;15.23;12.63;;;;;;;1.63;100.00;99786.88;15327232;19;19998;-80
2023/02/11 05:00:12;;;;;;;13.77;11.52;;;;;;;1.64;100.00;99789.47;15311337;19;20481;-78
2023/02/11 05:05:40;;;;;;;15.07;12.63;;;;;;;1.68;100.00;99792.84;15287839;19;20450;-77
2023/02/11 05:11:06;;;;;;;13.85;12.30;;;;;;;1.69;100.00;99791.91;15284348;19;20415;-77
2023/02/11 05:16:31;;;;;;;15.10;11.70;;;;;;;1.71;100.00;99789.16;15281341;19;20082;-78
2023/02/11 05:21:58;;;;;;;14.15;11.85;;;;;;;1.72;100.00;99796.22;15287308;19;20010;-77
2023/02/11 05:27:23;;;;;;;14.80;12.23;;;;;;;1.71;100.00;99792.69;15282989;19;20011;-78
2023/02/11 05:32:47;;;;;;;15.27;12.50;;;;;;;1.71;100.00;99790.03;15286283;19;20504;-78
2023/02/11 05:38:15;;;;;;;14.38;11.73;;;;;;;1.88;100.00;99791.03;15286438;19;20011;-79
2023/02/11 05:43:40;;;;;;;14.57;11.23;;;;;;;1.88;100.00;99789.25;15286540;19;20368;-79
2023/02/11 05:49:06;;;;;;;14.98;12.48;;;;;;;1.83;100.00;99788.59;15285671;19;20018;-78
2023/02/11 05:54:33;;;;;;;14.57;12.30;;;;;;;1.86;100.00;99777.84;15286676;19;20011;-78
2023/02/11 05:59:59;;;;;;;16.48;12.65;;;;;;;1.84;100.00;99790.31;15284809;19;20166;-78
2023/02/11 06:05:23;;;;;;;13.82;12.10;;;;;;;1.89;100.00;99771.50;15281684;19;20039;-78
2023/02/11 06:10:51;;;;;;;15.45;12.25;;;;;;;1.91;100.00;99786.44;15279997;19;20014;-76
2023/02/11 06:16:16;;;;;;;14.02;12.00;;;;;;;1.98;100.00;99776.38;15282209;19;20015;-77
2023/02/11 06:21:41;;;;;;;13.40;11.40;;;;;;;2.00;100.00;99769.19;15280001;19;20029;-77
2023/02/11 06:27:08;;;;;;;14.57;12.10;;;;;;;2.04;100.00;99775.22;15278343;19;20055;-77
2023/02/11 06:32:33;;;;;;;15.20;12.60;;;;;;;2.04;100.00;99781.41;15283558;19;20042;-80
2023/02/11 06:38:02;;;;;;;14.05;11.88;;;;;;;2.04;100.00;99781.41;15293196;19;20055;-79
2023/02/11 06:43:30;;;;;;;15.60;12.70;;;;;;;2.04;100.00;99776.09;15292015;19;20010;-78
2023/02/11 06:48:54;;;;;;;16.10;12.23;;;;;;;2.04;100.00;99792.06;15279205;19;20033;-78
2023/02/11 06:54:19;;;;;;;14.30;12.50;;;;;;;2.05;100.00;99791.13;15281203;19;20089;-78
2023/02/11 06:59:46;;;;;;;15.05;12.45;;;;;;;2.05;100.00;99803.53;15278409;19;20017;-78
2023/02/11 07:05:18;;;;;;;14.88;13.10;;;;;;;2.04;100.00;99800.03;14769155;19;10000371;-78
2023/02/11 07:10:44;;;;;;;16.00;13.30;;;;;;;2.05;100.00;99798.22;15283997;19;20818;-78
2023/02/11 07:16:15;;;;;;;14.15;12.40;;;;;;;2.07;100.00;99802.50;15282059;19;20018;-78
2023/02/11 07:21:41;;;;;;;14.87;12.97;;;;;;;2.10;100.00;99796.22;15280734;19;20010;-78
2023/02/11 07:27:05;;;;;;;16.10;12.55;;;;;;;2.12;100.00;99805.84;15282635;19;20463;-78
2023/02/11 07:32:34;;;;;;;15.65;13.23;;;;;;;2.15;100.00;99800.38;15283679;19;20700;-78
2023/02/11 07:37:59;;;;;;;15.65;13.48;;;;;;;2.18;100.00;99802.00;15289001;19;20546;-77
2023/02/11 07:43:24;;;;;;;15.90;13.13;;;;;;;2.18;100.00;99794.03;15300062;19;20010;-78
2023/02/11 07:48:58;;;;;;;14.48;12.18;;;;;;;2.21;100.00;99806.31;15321482;19;19999;-78
2023/02/11 07:54:23;;;;;;;15.10;12.88;;;;;;;2.26;100.00;99820.25;15323692;19;20017;-79
2023/02/11 07:59:47;;;;;;;13.93;12.50;;;;;;;2.29;100.00;99820.13;15295887;19;20025;-76
2023/02/11 08:05:29;;;;;;;15.35;13.02;;;;;;;2.31;100.00;99815.56;15297340;19;20020;-78
2023/02/11 08:10:55;;;;;;;15.13;13.27;;;;;;;2.31;100.00;99818.22;15291987;19;20378;-79
2023/02/11 08:16:27;;;;;;;14.43;12.75;;;;;;;2.33;100.00;99821.69;15317100;19;20503;-80
2023/02/11 08:21:58;;;;;;;16.48;13.32;;;;;;;2.34;100.00;99826.06;15342515;19;20420;-79
2023/02/11 08:27:22;;;;;;;14.53;12.87;;;;;;;2.37;100.00;99812.63;15320451;19;20015;-80
2023/02/11 08:32:48;;;;;;;17.88;13.52;;;;;;;2.39;100.00;99828.50;15305185;19;20272;-81
2023/02/11 08:38:15;;;;;;;17.27;13.23;;;;;;;2.40;100.00;99828.44;15296079;19;20035;-80
2023/02/11 08:43:42;;;;;;;16.77;13.38;;;;;;;2.41;100.00;99827.47;15292901;19;20457;-80
2023/02/11 08:49:06;;;;;;;14.65;13.18;;;;;;;2.43;100.00;99835.41;15292502;19;20098;-79
2023/02/11 08:54:36;;;;;;;17.48;14.38;;;;;;;2.43;100.00;99832.75;15293596;19;20078;-80
2023/02/11 09:00:00;;;;;;;17.65;15.57;;;;;;;2.46;100.00;99828.13;15290349;19;20392;-79
2023/02/11 09:05:31;;;;;;;15.77;13.32;;;;;;;2.47;100.00;99832.53;15294904;19;20015;-80
2023/02/11 09:11:00;;;;;;;16.13;13.57;;;;;;;2.50;100.00;99836.81;15287945;19;20006;-80
2023/02/11 09:16:26;;;;;;;15.48;13.52;;;;;;;2.56;100.00;99846.28;15287748;19;20021;-80
2023/02/11 09:21:51;;;;;;;16.95;14.20;;;;;;;2.63;100.00;99842.41;15289106;19;20014;-81
2023/02/11 09:27:18;;;;;;;14.90;13.40;;;;;;;2.72;100.00;99841.97;15294108;19;20039;-81
2023/02/11 09:32:43;;;;;;;15.98;13.43;;;;;;;2.76;100.00;99848.84;15288976;19;20019;-79
2023/02/11 09:38:07;;;;;;;14.02;12.57;;;;;;;2.83;100.00;99843.22;15285530;19;20022;-79
2023/02/11 09:43:39;;;;;;;16.52;13.57;;;;;;;2.89;100.00;99838.44;15267459;19;20027;-79
2023/02/11 09:49:04;;;;;;;15.75;13.55;;;;;;;3.00;100.00;99853.88;15279642;19;20018;-80
2023/02/11 09:54:35;;;;;;;16.15;14.45;;;;;;;3.11;100.00;99869.31;15287144;19;20019;-80
2023/02/11 10:00:04;;;;;;;15.65;13.95;;;;;;;3.20;100.00;99858.19;15283909;19;20014;-79
2023/02/11 10:05:50;;;;;;;15.75;14.05;;;;;;;3.33;100.00;99853.09;15293215;19;20035;-80
2023/02/11 10:11:23;;;;;;;13.40;11.88;;;;;;;3.47;100.00;99852.38;15294884;19;20100;-80
2023/02/11 10:17:04;;;;;;;13.43;12.02;;;;;;;3.63;100.00;99864.88;15288640;19;20011;-77
2023/02/11 10:22:33;;;;;;;13.60;12.07;;;;;;;3.82;100.00;99862.97;15285513;19;20309;-83
2023/02/11 10:27:58;;;;;;;13.63;11.32;;;;;;;3.97;100.00;99850.59;15285548;19;20022;-82
2023/02/11 10:33:30;;;;;;;12.25;11.02;;;;;;;4.21;100.00;99846.66;15288815;19;20066;-80
2023/02/11 10:38:54;;;;;;;12.10;10.05;;;;;;;4.49;100.00;99859.31;15285475;19;20078;-80
2023/02/11 10:44:27;;;;;;;11.18;9.80;;;;;;;4.78;100.00;99854.09;15294143;19;20018;-77
2023/02/11 10:50:02;;;;;;;10.27;9.27;;;;;;;5.04;100.00;99838.38;15334537;19;20010;-77
2023/02/11 10:55:29;;;;;;;9.60;8.57;;;;;;;5.30;100.00;99838.63;15279294;19;20014;-78
2023/02/11 11:01:00;;;;;;;9.90;8.75;;;;;;;5.41;100.00;99830.81;15277070;19;20017;-81
2023/02/11 11:06:44;;;;;;;9.13;8.23;;;;;;;5.51;100.00;99834.63;15286873;19;20021;-80
2023/02/11 11:12:09;;;;;;;9.00;7.93;;;;;;;5.58;100.00;99815.56;15305640;19;20054;-79
2023/02/11 11:17:35;;;;;;;9.27;8.13;;;;;;;5.64;100.00;99807.16;15302114;19;20477;-79
2023/02/11 11:23:18;;;;;;;8.63;7.78;;;;;;;5.68;100.00;99814.88;15294677;19;20002;-78
2023/02/11 11:28:53;;;;;;;8.68;7.47;;;;;;;5.77;100.00;99821.47;15291805;19;20037;-80
2023/02/11 11:34:29;;;;;;;8.50;6.65;;;;;;;5.85;100.00;99829.88;15294823;19;20082;-79
2023/02/11 11:40:00;;;;;;;7.88;6.97;;;;;;;5.95;100.00;99818.59;15288139;19;20593;-79
2023/02/11 11:45:33;;;;;;;7.22;6.40;;;;;;;6.05;100.00;99825.13;15295264;19;20696;-79
2023/02/11 11:51:01;;;;;;;7.32;6.50;;;;;;;6.06;100.00;99813.44;15291450;19;20025;-80
2023/02/11 11:56:30;;;;;;;7.28;6.30;;;;;;;5.97;100.00;99806.84;15291304;19;20031;-81
2023/02/11 12:02:23;;;;;;;7.15;6.45;;;;;;;5.98;100.00;99794.31;15286289;19;20343;-78
2023/02/11 12:08:01;;;;;;;7.15;5.97;;;;;;;6.03;100.00;99807.44;15297223;19;20344;-78
2023/02/11 12:13:48;;;;;;;7.15;6.22;;;;;;;6.04;100.00;99811.81;15327506;19;20018;-76
2023/02/11 12:19:38;;;;;;;7.45;6.72;;;;;;;6.07;100.00;99828.53;15314136;19;20370;-80
2023/02/11 12:25:29;;;;;;;7.85;6.43;;;;;;;6.09;100.00;99818.59;15301788;19;20014;-80
2023/02/11 12:31:09;;;;;;;7.67;6.70;;;;;;;6.13;100.00;99814.78;15296240;19;20089;-78
2023/02/11 12:37:04;;;;;;;7.35;6.30;;;;;;;6.15;100.00;99794.13;15294310;19;20618;-77
2023/02/11 12:43:19;;;;;;;7.78;6.75;;;;;;;6.20;100.00;99792.97;15304895;19;20011;-80
2023/02/11 12:49:22;;;;;;;7.63;6.40;;;;;;;6.25;100.00;99804.25;15303196;19;20015;-80
2023/02/11 12:54:53;;;;;;;;;;;;;;;6.25;100.00;99807.75;15300139;19;20517;-79
2023/02/11 13:00:22;;;;;;;6.88;6.18;;;;;;;6.30;100.00;99797.63;15297410;19;19922;-80
2023/02/11 13:06:00;;;;;;;8.23;6.70;;;;;;;6.20;100.00;99783.13;15287704;19;20021;-79
2023/02/11 13:11:32;;;;;;;8.00;6.22;;;;;;;6.27;100.00;99795.16;15288121;19;20358;-79
2023/02/11 13:17:01;;;;;;;7.60;6.32;;;;;;;6.31;100.00;99782.41;15291374;19;20015;-80
2023/02/11 13:22:50;;;;;;;6.57;5.85;;;;;;;6.30;100.00;99786.03;15299104;19;20018;-80
2023/02/11 13:28:39;;;;;;;8.23;6.28;;;;;;;6.35;100.00;99796.47;15296578;19;20011;-81
2023/02/11 13:34:05;;;;;;;7.18;5.90;;;;;;;6.35;100.00;99800.00;15293922;19;20014;-79
2023/02/11 13:39:32;;;;;;;8.75;5.97;;;;;;;6.37;100.00;99808.81;15293607;19;20027;-78
2023/02/11 13:45:00;;;;;;;8.27;6.05;;;;;;;6.35;100.00;99810.72;15305348;19;20006;-79
2023/02/11 13:50:33;;;;;;;7.00;6.20;;;;;;;6.31;100.00;99814.53;15332083;19;20049;-81
2023/02/11 13:56:14;;;;;;;;;;;;;;;6.25;100.00;99814.94;15297878;19;20015;-81
2023/02/11 14:14:28;;;;;;;7.88;6.43;;;;;;;6.24;100.00;99813.22;15307381;19;20010;-81
2023/02/11 14:19:53;;;;;;;7.82;6.05;;;;;;;6.17;100.00;99821.63;15288348;19;20011;-82
2023/02/11 14:25:29;;;;;;;7.30;6.35;;;;;;;6.23;100.00;99828.44;15312582;19;20047;-82
2023/02/11 14:31:13;;;;;;;7.88;6.55;;;;;;;6.16;100.00;99829.78;15300132;19;20014;-83
2023/02/11 14:37:02;;;;;;;7.93;6.82;;;;;;;6.10;100.00;99823.00;15295935;19;20026;-83
2023/02/11 14:42:31;;;;;;;8.68;6.88;;;;;;;6.07;100.00;99831.22;15301713;19;20074;-81
2023/02/11 14:48:04;;;;;;;8.65;7.00;;;;;;;5.99;100.00;99837.06;15302532;19;20014;-81
2023/02/11 14:53:36;;;;;;;9.18;7.65;;;;;;;5.98;100.00;99843.34;15312680;19;20011;-82
2023/02/11 14:59:09;;;;;;;9.38;7.60;;;;;;;5.95;100.00;99838.19;15301246;19;20018;-81
2023/02/11 15:04:39;;;;;;;8.30;7.43;;;;;;;5.95;100.00;99834.63;15303614;19;20009;-81
2023/02/11 15:10:04;;;;;;;9.52;7.82;;;;;;;5.86;100.00;99849.47;15293946;19;20510;-80
2023/02/11 15:15:30;;;;;;;9.27;8.25;;;;;;;5.80;100.00;99860.53;15298504;19;20066;-81
2023/02/11 15:20:59;;;;;;;11.02;8.55;;;;;;;5.70;100.00;99857.59;15292330;19;20007;-80
2023/02/11 15:26:24;;;;;;;11.10;9.10;;;;;;;5.65;100.00;99873.03;15296852;19;20017;-80
2023/02/11 15:31:49;;;;;;;10.82;9.20;;;;;;;5.61;100.00;99871.50;15292947;19;20057;-81
2023/02/11 15:37:22;;;;;;;12.20;9.90;;;;;;;5.52;100.00;99876.47;15303062;19;20589;-81
2023/02/11 15:42:47;;;;;;;11.65;9.55;;;;;;;5.46;100.00;99876.84;15297245;19;20481;-82
2023/02/11 15:48:17;;;;;;;12.52;9.70;;;;;;;5.37;100.00;99896.09;15299350;19;20010;-81
2023/02/11 15:53:46;;;;;;;11.98;9.88;;;;;;;5.32;100.00;99892.84;15307740;19;20042;-82
2023/02/11 15:59:17;;;;;;;12.82;9.70;;;;;;;5.32;100.00;99903.53;15301324;19;20023;-81
2023/02/11 16:04:43;;;;;;;12.23;10.60;;;;;;;5.30;100.00;99905.44;15339155;19;20304;-82
2023/02/11 16:10:23;;;;;;;13.95;10.23;;;;;;;5.34;100.00;99909.66;15317537;19;20018;-80
2023/02/11 16:15:54;;;;;;;13.18;10.18;;;;;;;5.28;100.00;99910.00;15299902;19;20011;-79
2023/02/11 16:21:21;;;;;;;12.77;10.30;;;;;;;5.20;100.00;99916.66;15300262;19;20078;-79
2023/02/11 16:27:04;;;;;;;12.68;9.63;;;;;;;5.23;100.00;99934.31;15294617;19;20017;-80
2023/02/11 16:32:31;;;;;;;10.82;9.38;;;;;;;5.29;100.00;99925.09;15298830;19;20105;-79
2023/02/11 16:37:49;;;;;;;11.35;10.07;;;;;;;5.28;100.00;99926.03;15291951;19;20023;-81
2023/02/11 16:43:16;;;;;;;11.15;9.82;;;;;;;5.25;100.00;99924.41;15302004;19;20029;-81
2023/02/11 16:48:41;;;;;;;14.02;10.40;;;;;;;5.28;100.00;99937.59;15344042;19;20006;-82
2023/02/11 16:54:05;;;;;;;10.73;9.23;;;;;;;5.31;100.00;99944.56;15295004;19;20014;-79
2023/02/11 16:59:33;;;;;;;11.73;9.63;;;;;;;5.27;100.00;99959.06;15283588;19;20047;-79
2023/02/11 17:05:07;;;;;;;12.35;10.00;;;;;;;5.24;100.00;99958.28;15285339;19;20391;-81
2023/02/11 17:10:32;;;;;;;13.75;10.20;;;;;;;5.22;100.00;99960.19;15295187;19;20389;-82
2023/02/11 17:16:00;;;;;;;10.70;9.50;;;;;;;5.21;100.00;99978.97;15284048;19;20006;-81
2023/02/11 17:21:26;;;;;;;11.02;9.52;;;;;;;5.16;100.00;99975.72;15283414;19;20010;-80
2023/02/11 17:26:53;;;;;;;13.02;10.65;;;;;;;5.16;100.00;99989.09;15290626;19;20072;-80
2023/02/11 17:32:21;;;;;;;12.50;10.05;;;;;;;5.17;100.00;99998.81;15293947;19;20112;-79
2023/02/11 17:37:46;;;;;;;11.65;10.32;;;;;;;5.15;100.00;100001.56;15293655;19;20014;-82
2023/02/11 17:43:11;;;;;;;13.50;10.38;;;;;;;5.16;100.00;100005.97;15298941;19;20015;-80
2023/02/11 17:48:38;;;;;;;12.40;10.68;;;;;;;5.16;100.00;100010.47;15292131;19;21081;-80
2023/02/11 17:53:59;;;;;;;12.95;10.57;;;;;;;5.11;100.00;100005.38;15298832;19;20011;-80
2023/02/11 17:59:34;;;;;;;14.20;11.23;;;;;;;5.07;100.00;100019.84;15295031;19;20013;-86
2023/02/11 18:05:03;;;;;;;13.32;10.45;;;;;;;5.12;100.00;100031.13;15303965;19;20074;-79
2023/02/11 18:10:37;;;;;;;12.80;10.55;;;;;;;5.12;100.00;100031.13;15294682;19;20054;-80
2023/02/11 18:16:01;;;;;;;12.80;10.77;;;;;;;5.10;100.00;100038.38;15298175;19;20054;-80
2023/02/11 18:21:29;;;;;;;15.75;11.15;;;;;;;5.17;100.00;100047.75;15285326;19;20074;-81
2023/02/11 18:26:54;;;;;;;14.85;11.63;;;;;;;5.15;100.00;100044.31;15296486;19;20011;-80
2023/02/11 18:32:19;;;;;;;14.93;11.80;;;;;;;5.15;100.00;100044.31;15296297;19;20018;-81
2023/02/11 18:37:52;;;;;;;12.57;10.80;;;;;;;5.16;100.00;100045.19;15302293;19;20101;-82
2023/02/11 18:43:18;;;;;;;14.43;11.50;;;;;;;5.14;100.00;100047.94;15315287;19;20380;-81
2023/02/11 18:48:43;;;;;;;15.18;11.95;;;;;;;5.21;100.00;100060.03;15312531;19;20058;-83
2023/02/11 18:54:11;;;;;;;13.77;11.13;;;;;;;5.17;100.00;100053.13;15314729;19;20011;-81
2023/02/11 18:59:35;;;;;;;16.38;12.63;;;;;;;5.17;100.00;100058.47;15309345;19;20014;-80
2023/02/11 19:05:08;;;;;;;15.40;12.35;;;;;;;5.19;100.00;100066.38;15306620;19;20096;-82
2023/02/11 19:10:36;;;;;;;15.45;12.73;;;;;;;5.23;100.00;100082.16;15309002;19;20010;-82
2023/02/11 19:16:01;;;;;;;17.27;13.20;;;;;;;5.16;100.00;100104.81;15319783;19;20018;-80
2023/02/11 19:21:28;;;;;;;18.90;14.73;;;;;;;5.13;100.00;100126.34;15291250;19;20041;-80
2023/02/11 19:26:58;;;;;;;20.10;14.75;;;;;;;5.05;100.00;100139.28;15281204;19;20508;-78
2023/02/11 19:32:22;;;;;;;21.52;16.48;;;;;;;4.99;100.00;100161.00;15308605;19;20021;-79
2023/02/11 19:37:47;;;;;;;27.23;17.52;;;;;;;4.90;100.00;100165.88;10900933;19;10001988;-78
2023/02/11 19:43:16;;;;;;;25.42;17.48;;;;;;;4.87;100.00;100174.06;15345098;19;20007;-79
2023/02/11 19:48:40;;;;;;;26.77;18.98;;;;;;;4.83;100.00;100191.19;15303134;19;20007;-80
2023/02/11 19:54:09;;;;;;;31.52;19.95;;;;;;;4.81;100.00;100195.75;15318332;19;20035;-78
2023/02/11 19:59:37;;;;;;;29.73;20.52;;;;;;;4.84;100.00;100198.25;15315208;19;20014;-80
2023/02/11 20:05:06;;;;;;;30.10;19.92;;;;;;;4.83;100.00;100209.88;15301782;19;20043;-80
2023/02/11 20:10:32;;;;;;;29.70;20.55;;;;;;;4.85;100.00;100217.81;15297864;19;20011;-79
2023/02/11 20:16:04;;;;;;;30.15;20.73;;;;;;;4.91;100.00;100226.38;15301144;19;20044;-79
2023/02/11 20:21:32;;;;;;;40.17;23.20;;;;;;;4.85;100.00;100229.38;15301535;19;20011;-80
2023/02/11 20:26:57;;;;;;;40.08;23.85;;;;;;;4.83;100.00;100249.94;15300895;19;20039;-81
2023/02/11 20:32:25;;;;;;;45.90;26.15;;;;;;;4.81;100.00;100259.84;15299451;19;20019;-80
2023/02/11 20:37:51;;;;;;;40.38;24.73;;;;;;;4.82;100.00;100266.91;15299007;19;20035;-79
2023/02/11 20:43:26;;;;;;;39.38;25.23;;;;;;;4.80;100.00;100273.28;15300565;19;20022;-82
2023/02/11 20:48:57;;;;;;;45.63;27.85;;;;;;;4.75;100.00;100271.69;15290216;19;20047;-79
2023/02/11 20:54:25;;;;;;;45.88;26.15;;;;;;;4.72;100.00;100271.84;15295707;19;20078;-80
2023/02/11 20:59:49;;;;;;;51.88;29.45;;;;;;;4.72;100.00;100279.00;15292807;19;20062;-79
2023/02/11 21:05:24;;;;;;;49.95;28.30;;;;;;;4.67;100.00;100284.59;15279242;19;20082;-80
2023/02/11 21:10:50;;;;;;;52.45;28.40;;;;;;;4.66;100.00;100293.53;15285511;19;20010;-79
2023/02/11 21:16:16;;;;;;;55.58;30.10;;;;;;;4.70;100.00;100310.25;15290466;19;20485;-79
2023/02/11 21:21:50;;;;;;;56.40;30.27;;;;;;;4.73;100.00;100316.31;15293117;19;20354;-78
2023/02/11 21:27:36;;;;;;;58.08;30.70;;;;;;;4.74;100.00;100328.72;15299490;19;20010;-80
2023/02/11 21:33:02;;;;;;;67.75;32.85;;;;;;;4.72;100.00;100332.41;15300986;19;20085;-79
2023/02/11 21:38:30;;;;;;;66.60;33.25;;;;;;;4.77;100.00;100333.91;15298460;19;20013;-81
2023/02/11 21:43:59;;;;;;;61.30;33.45;;;;;;;4.77;100.00;100343.72;15298474;19;20378;-80
2023/02/11 21:49:25;;;;;;;62.05;33.28;;;;;;;4.79;100.00;100339.16;15297115;19;20058;-80
2023/02/11 21:54:51;;;;;;;58.40;31.63;;;;;;;4.82;100.00;100344.38;15293237;19;20021;-82
2023/02/11 22:00:21;;;;;;;68.28;33.63;;;;;;;4.80;100.00;100346.25;15289019;19;20025;-81
2023/02/11 22:05:53;;;;;;;83.55;35.67;;;;;;;4.81;100.00;100368.50;15292821;19;20031;-83
2023/02/11 22:11:21;;;;;;;78.68;35.88;;;;;;;4.81;100.00;100380.03;15297657;19;20275;-81
2023/02/11 22:16:49;;;;;;;74.50;35.95;;;;;;;4.82;100.00;100368.41;15296661;19;20014;-82
2023/02/11 22:22:24;;;;;;;74.80;34.75;;;;;;;4.85;100.00;100375.38;15303636;19;20043;-81
2023/02/11 22:27:54;;;;;;;72.30;35.35;;;;;;;4.87;100.00;100379.72;15303390;19;20034;-82
2023/02/11 22:33:36;;;;;;;77.28;36.53;;;;;;;4.88;100.00;100394.78;15315085;19;20040;-80
2023/02/11 22:39:10;;;;;;;74.35;35.28;;;;;;;4.90;100.00;100403.59;15329837;19;20050;-81
2023/02/11 22:44:35;;;;;;;74.90;35.20;;;;;;;4.90;100.00;100418.78;15306810;19;20022;-80
2023/02/11 22:50:12;;;;;;;73.28;34.53;;;;;;;4.86;100.00;100419.84;15309847;19;20082;-80
2023/02/11 22:55:39;;;;;;;79.07;35.95;;;;;;;4.87;100.00;100427.81;15302625;19;20031;-81
2023/02/11 23:01:05;;;;;;;75.25;35.55;;;;;;;4.86;100.00;100425.19;15309327;19;20003;-80
2023/02/11 23:06:46;;;;;;;70.35;35.17;;;;;;;4.87;100.00;100429.59;15322050;19;20054;-82
2023/02/11 23:12:11;;;;;;;75.15;35.92;;;;;;;4.86;100.00;100436.75;15331018;19;20030;-82
2023/02/11 23:17:37;;;;;;;81.65;36.90;;;;;;;4.88;100.00;100436.66;15329991;19;20022;-81
2023/02/11 23:23:06;;;;;;;78.00;36.80;;;;;;;4.91;100.00;100442.72;15325569;19;20043;-80
2023/02/11 23:28:31;;;;;;;78.45;35.58;;;;;;;4.86;100.00;100436.75;15326178;19;20052;-80
2023/02/11 23:34:05;;;;;;;68.50;34.50;;;;;;;4.91;100.00;100441.88;15325951;19;20050;-80
2023/02/11 23:39:39;;;;;;;71.40;34.47;;;;;;;4.92;100.00;100454.28;15319638;19;20025;-80
2023/02/11 23:45:11;;;;;;;68.50;34.30;;;;;;;4.91;100.00;100458.75;15313312;19;20018;-79
2023/02/11 23:50:36;;;;;;;66.40;34.47;;;;;;;4.92;100.00;100452.47;15325919;19;20018;-78
2023/02/11 23:56:09;;;;;;;64.78;33.40;;;;;;;4.93;100.00;100454.19;15326423;19;20010;-80
